Time;durP1;ratioP1;P1;durP2;ratioP2;P2;SDS_P1;SDS_P2;PMS_P1;PMS_P2;Temp;Humidity;BMP_temperature;BMP_pressure;BME280_temperature;BME280_humidity;BME280_pressure;Samples;Min_cycle;Max_cycle;Signal;HPM_P1;HPM_P2
2023/05/12 00:01:33;;;;;;;;;;;;;;;30.69;74.97;101020.44;5116616;27;66551;-40
2023/05/12 00:04:03;;;;;;;;;;;;;;;30.80;75.17;101015.44;5119551;27;70181;-42
2023/05/12 00:06:34;;;;;;;;;;;;;;;30.70;73.35;101016.72;5116980;27;66464;-40
2023/05/12 00:09:05;;;;;;;;;;;;;;;30.67;72.00;101027.97;5119707;27;69869;-38
2023/05/12 00:11:38;;;;;;;;;;;;;;;30.66;72.62;101028.19;5119700;27;66320;-39
2023/05/12 00:14:09;;;;;;;;;;;;;;;30.66;71.62;101029.00;5115931;27;70399;-39
2023/05/12 00:20:01;;;;;;;;;;;;;;;30.67;72.36;101021.72;5117447;27;70463;-38
2023/05/12 00:22:34;;;;;;;;;;;;;;;30.69;71.60;101020.44;5086540;27;65322;-40
2023/05/12 00:25:05;;;;;;;;;;;;;;;30.75;72.64;101023.34;5119896;27;70027;-40
2023/05/12 00:27:36;;;;;;;;;;;;;;;31.37;71.73;101024.47;5128845;27;67020;-38
2023/05/12 00:30:06;;;;;;;;;;;;;;;31.43;71.32;101020.88;5121861;27;70236;-40
2023/05/12 00:32:36;;;;;;;;;;;;;;;31.24;71.85;101019.13;5118808;27;66687;-43
2023/05/12 00:35:07;;;;;;;;;;;;;;;30.99;71.87;101017.19;5099773;27;69483;-42
2023/05/12 00:37:37;;;;;;;;;;;;;;;30.92;71.05;101008.28;5123451;27;65476;-43
2023/05/12 00:40:08;;;;;;;;;;;;;;;30.89;70.66;101008.72;5106857;27;70349;-44
2023/05/12 00:42:39;;;;;;;;;;;;;;;30.89;69.65;101014.13;5118721;27;66185;-42
2023/05/12 00:45:09;;;;;;;;;;;;;;;30.89;70.30;101014.13;5122651;27;70591;-43
2023/05/12 00:47:39;;;;;;;;;;;;;;;30.90;69.40;101018.50;5104900;27;66106;-43
2023/05/12 00:50:10;;;;;;;;;;;;;;;30.89;69.33;101030.38;5083736;27;70633;-43
2023/05/12 00:52:40;;;;;;;;;;;;;;;30.89;69.29;101030.38;5084657;27;66397;-42
2023/05/12 00:55:10;;;;;;;;;;;;;;;30.90;68.98;101032.06;5104399;27;70575;-42
2023/05/12 00:57:41;;;;;;;;;;;;;;;30.92;68.57;101032.66;5086319;27;66702;-41
2023/05/12 01:00:12;;;;;;;;;;;;;;;30.92;68.70;101038.06;5118915;27;69814;-43
2023/05/12 01:02:45;;;;;;;;;;;;;;;30.91;68.34;101033.72;5101161;27;66299;-42
2023/05/12 01:05:15;;;;;;;;;;;;;;;30.94;68.02;101036.81;5119758;27;70442;-42
2023/05/12 01:07:46;;;;;;;;;;;;;;;30.96;67.86;101031.19;5114512;27;65720;-43
2023/05/12 01:10:18;;;;;;;;;;;;;;;30.97;67.09;101030.13;5091053;27;69632;-43
2023/05/12 01:12:49;;;;;;;;;;;;;;;30.99;67.85;101019.91;5115053;27;65585;-43
2023/05/12 01:15:19;;;;;;;;;;;;;;;31.00;67.41;101029.69;5123849;27;68812;-42
2023/05/12 01:17:53;;;;;;;;;;;;;;;31.01;66.72;101034.06;5137531;27;66486;-43
2023/05/12 01:20:25;;;;;;;;;;;;;;;31.03;66.82;101037.38;5113101;27;70366;-42
2023/05/12 01:22:57;;;;;;;;;;;;;;;31.05;66.73;101045.31;5105345;27;66177;-42
2023/05/12 01:25:31;;;;;;;;;;;;;;;31.07;66.79;101044.03;5089667;27;69948;-43
2023/05/12 01:28:03;;;;;;;;;;;;;;;31.10;66.07;101049.00;5097119;27;67638;-42
2023/05/12 01:30:34;;;;;;;;;;;;;;;31.12;66.03;101041.50;5120106;27;70268;-45
2023/05/12 01:33:05;;;;;;;;;;;;;;;31.13;66.05;101043.16;5098087;27;66576;-43
2023/05/12 01:35:35;;;;;;;;;;;;;;;31.16;66.01;101042.72;5121103;27;69752;-43
2023/05/12 01:38:05;;;;;;;;;;;;;;;31.19;65.83;101052.28;5121719;27;65620;-41
2023/05/12 01:40:39;;;;;;;;;;;;;;;31.20;65.92;101042.28;5117142;27;70017;-44
2023/05/12 01:43:09;;;;;;;;;;;;;;;31.22;65.70;101057.28;5112115;27;66198;-43
2023/05/12 01:45:39;;;;;;;;;;;;;;;31.24;66.00;101048.94;5099490;27;69086;-41
2023/05/12 01:48:10;;;;;;;;;;;;;;;31.26;65.59;101053.09;5084135;27;65935;-44
2023/05/12 01:50:41;;;;;;;;;;;;;;;31.28;65.23;101050.97;5103353;27;70105;-42
2023/05/12 01:53:16;;;;;;;;;;;;;;;31.30;65.30;101048.06;5091510;27;66629;-42
2023/05/12 01:55:47;;;;;;;;;;;;;;;31.33;65.16;101044.91;5121139;27;69573;-42
2023/05/12 01:58:19;;;;;;;;;;;;;;;31.33;65.40;101053.84;5104688;27;65495;-44
2023/05/12 02:00:50;;;;;;;;;;;;;;;31.36;65.29;101058.03;5106865;27;70361;-42
2023/05/12 02:03:20;;;;;;;;;;;;;;;31.38;64.91;101059.50;5086525;27;66881;-42
2023/05/12 02:05:51;;;;;;;;;;;;;;;31.41;65.27;101062.81;5119023;27;70508;-44
2023/05/12 02:08:21;;;;;;;;;;;;;;;31.43;65.42;101061.56;5122324;27;67270;-42
2023/05/12 02:11:07;;;;;;;;;;;;;;;31.45;65.44;101059.44;5103704;27;69104;-42
2023/05/12 02:13:38;;;;;;;;;;;;;;;31.48;64.93;101061.72;5102867;27;66868;-42
2023/05/12 02:16:08;;;;;;;;;;;;;;;31.50;64.65;101056.06;5111060;27;70224;-41
2023/05/12 02:18:39;;;;;;;;;;;;;;;31.54;64.41;101044.56;5102155;27;66366;-43
2023/05/12 02:21:09;;;;;;;;;;;;;;;31.57;64.48;101043.31;5103120;27;70048;-42
2023/05/12 02:23:39;;;;;;;;;;;;;;;31.60;64.65;101040.97;5101597;27;66863;-42
2023/05/12 02:26:09;;;;;;;;;;;;;;;31.62;64.33;101035.31;5119559;27;70635;-43
2023/05/12 02:28:39;;;;;;;;;;;;;;;31.65;64.37;101039.47;5100813;27;66246;-42
2023/05/12 02:31:10;;;;;;;;;;;;;;;31.67;64.41;101032.75;5101121;27;69957;-43
2023/05/12 02:33:40;;;;;;;;;;;;;;;31.70;64.34;101023.34;5100827;27;66332;-41
2023/05/12 02:36:10;;;;;;;;;;;;;;;31.74;64.22;101021.88;5118109;27;70834;-42
2023/05/12 02:38:41;;;;;;;;;;;;;;;31.76;64.16;101015.19;5119698;27;67528;-42
2023/05/12 02:41:11;;;;;;;;;;;;;;;31.79;63.91;101016.63;5111890;27;69428;-42
2023/05/12 02:43:42;;;;;;;;;;;;;;;31.81;63.82;101009.06;5101736;27;66011;-43
2023/05/12 02:46:13;;;;;;;;;;;;;;;31.84;63.80;101005.91;5120067;27;70268;-43
2023/05/12 02:48:43;;;;;;;;;;;;;;;31.86;63.62;101009.22;5074415;27;66579;-43
2023/05/12 02:51:14;;;;;;;;;;;;;;;31.88;63.71;101004.41;5097804;27;70283;-43
2023/05/12 02:53:45;;;;;;;;;;;;;;;31.91;63.59;101004.00;5103148;27;66951;-43
2023/05/12 02:56:16;;;;;;;;;;;;;;;31.94;63.32;101000.00;5093496;27;69804;-43
2023/05/12 02:58:47;;;;;;;;;;;;;;;31.97;62.90;100989.53;5109224;27;66501;-45
2023/05/12 03:01:17;;;;;;;;;;;;;;;31.99;63.24;100992.84;5115772;27;70215;-43
2023/05/12 03:03:47;;;;;;;;;;;;;;;32.02;63.14;100992.41;5118082;27;66369;-44
2023/05/12 03:06:18;;;;;;;;;;;;;;;32.05;62.92;100983.81;5106861;27;69870;-46
2023/05/12 03:08:49;;;;;;;;;;;;;;;32.07;62.94;100983.59;5119352;27;66225;-44
2023/05/12 03:11:19;;;;;;;;;;;;;;;32.12;62.66;100993.75;5102807;27;69858;-42
2023/05/12 03:13:49;;;;;;;;;;;;;;;32.14;62.75;100978.06;5111225;27;65860;-44
2023/05/12 03:16:19;;;;;;;;;;;;;;;32.16;62.34;100986.81;5124229;27;69545;-45
2023/05/12 03:18:50;;;;;;;;;;;;;;;32.18;62.49;100973.84;5094952;27;66788;-46
2023/05/12 03:21:21;;;;;;;;;;;;;;;32.20;62.50;100977.16;5101400;27;69040;-45
2023/05/12 03:23:51;;;;;;;;;;;;;;;32.21;62.19;100984.25;5112642;27;65914;-43
2023/05/12 03:26:22;;;;;;;;;;;;;;;32.21;62.05;100979.66;5123166;27;69523;-45
2023/05/12 03:28:53;;;;;;;;;;;;;;;32.21;62.02;100985.09;5097703;27;66701;-42
2023/05/12 03:31:23;;;;;;;;;;;;;;;32.21;61.94;100976.13;5110619;27;70099;-44
2023/05/12 03:33:53;;;;;;;;;;;;;;;32.22;61.92;100972.34;5109867;27;65955;-45
2023/05/12 03:36:24;;;;;;;;;;;;;;;32.22;62.04;100973.16;5080778;27;70161;-44
2023/05/12 03:38:54;;;;;;;;;;;;;;;32.24;61.99;100972.94;5100405;27;66535;-47
2023/05/12 03:41:24;;;;;;;;;;;;;;;32.24;61.86;100967.53;5116492;27;69579;-43
2023/05/12 03:43:55;;;;;;;;;;;;;;;32.23;61.80;100960.41;5085596;27;66312;-44
2023/05/12 03:46:25;;;;;;;;;;;;;;;32.24;61.98;100951.25;5122288;27;70407;-44
2023/05/12 03:48:56;;;;;;;;;;;;;;;32.24;61.97;100946.63;5129141;27;66462;-44
2023/05/12 03:51:27;;;;;;;;;;;;;;;32.25;61.78;100952.88;5099712;27;68714;-44
2023/05/12 03:53:57;;;;;;;;;;;;;;;32.28;61.84;100947.00;5122031;27;66825;-43
2023/05/12 03:56:28;;;;;;;;;;;;;;;32.28;61.99;100947.81;5116973;27;70557;-44
2023/05/12 03:58:58;;;;;;;;;;;;;;;32.30;61.57;100939.47;5123139;27;65454;-43
2023/05/12 04:01:28;;;;;;;;;;;;;;;32.33;61.86;100947.13;5103412;27;70120;-43
2023/05/12 04:04:01;;;;;;;;;;;;;;;32.35;61.63;100934.19;5130237;27;67173;-43
2023/05/12 04:06:31;;;;;;;;;;;;;;;32.38;61.42;100941.84;5125889;27;70332;-43
2023/05/12 04:09:03;;;;;;;;;;;;;;;32.41;61.49;100927.81;5099827;27;67072;-43
2023/05/12 04:11:34;;;;;;;;;;;;;;;32.43;61.53;100922.16;5126210;27;70562;-44
2023/05/12 04:14:04;;;;;;;;;;;;;;;32.45;61.31;100917.31;5103039;27;65893;-42
2023/05/12 04:16:34;;;;;;;;;;;;;;;32.46;61.63;100917.13;5124980;27;70515;-44
2023/05/12 04:19:04;;;;;;;;;;;;;;;32.47;61.48;100909.81;5099564;27;66808;-45
2023/05/12 04:21:35;;;;;;;;;;;;;;;32.49;61.50;100905.81;5101524;27;69352;-44
2023/05/12 04:24:06;;;;;;;;;;;;;;;32.49;61.49;100900.38;5118896;27;65935;-43
2023/05/12 04:26:37;;;;;;;;;;;;;;;32.51;61.68;100904.75;5105078;27;70617;-44
2023/05/12 04:29:08;;;;;;;;;;;;;;;32.52;61.78;100898.28;5104692;27;65027;-44
2023/05/12 04:31:39;;;;;;;;;;;;;;;32.54;61.78;100890.69;5106505;27;70405;-45
2023/05/12 04:34:09;;;;;;;;;;;;;;;32.55;61.43;100897.81;5108915;27;65700;-44
2023/05/12 04:36:40;;;;;;;;;;;;;;;32.58;61.58;100886.47;5123976;27;69827;-44
2023/05/12 04:39:10;;;;;;;;;;;;;;;32.59;61.72;100885.41;5123603;27;67724;-44
2023/05/12 04:41:40;;;;;;;;;;;;;;;32.62;61.42;100863.22;5084462;27;69132;-45
2023/05/12 04:44:11;;;;;;;;;;;;;;;32.63;61.18;100856.75;5114451;27;66145;-43
2023/05/12 04:46:43;;;;;;;;;;;;;;;32.66;61.47;100848.13;5107633;27;69144;-44
2023/05/12 04:49:13;;;;;;;;;;;;;;;32.68;61.40;100848.69;5120477;27;66308;-45
2023/05/12 04:51:43;;;;;;;;;;;;;;;32.71;61.06;100848.25;5122812;27;70339;-43
2023/05/12 04:54:13;;;;;;;;;;;;;;;32.73;61.15;100829.81;5118960;27;65451;-46
2023/05/12 04:56:44;;;;;;;;;;;;;;;32.77;61.03;100820.16;5107446;27;70141;-45
2023/05/12 04:59:14;;;;;;;;;;;;;;;32.79;60.66;100823.47;5115334;27;66240;-43
2023/05/12 05:01:46;;;;;;;;;;;;;;;32.82;60.63;100814.84;5097770;27;70380;-45
2023/05/12 05:04:16;;;;;;;;;;;;;;;32.85;60.66;100806.22;5097825;27;66531;-46
2023/05/12 05:06:47;;;;;;;;;;;;;;;32.88;60.54;100803.03;5116435;27;69352;-44
2023/05/12 05:09:17;;;;;;;;;;;;;;;32.91;60.52;100793.59;5105262;27;66421;-44
2023/05/12 05:11:47;;;;;;;;;;;;;;;32.94;60.55;100793.94;5135420;27;70070;-46
2023/05/12 05:14:18;;;;;;;;;;;;;;;32.96;60.17;100792.84;5132618;27;66584;-45
2023/05/12 05:16:48;;;;;;;;;;;;;;;32.98;60.57;100779.88;5132581;27;70313;-43
2023/05/12 05:19:19;;;;;;;;;;;;;;;33.02;60.25;100779.19;5125503;27;66970;-46
2023/05/12 05:22:06;;;;;;;;;;;;;;;33.04;60.42;100778.94;5127673;27;69705;-45
2023/05/12 05:24:37;;;;;;;;;;;;;;;33.05;60.23;100767.03;5099044;27;66427;-43
2023/05/12 05:27:07;;;;;;;;;;;;;;;33.08;60.33;100755.69;5085310;27;69192;-44
2023/05/12 05:29:38;;;;;;;;;;;;;;;33.12;60.55;100754.13;5120685;27;66447;-45
2023/05/12 05:32:08;;;;;;;;;;;;;;;33.15;60.08;100750.91;5119586;27;70324;-43
2023/05/12 05:34:39;;;;;;;;;;;;;;;33.16;60.22;100747.16;5098394;27;66211;-44
2023/05/12 05:37:09;;;;;;;;;;;;;;;33.18;60.35;100755.88;5118557;27;70474;-45
2023/05/12 05:39:39;;;;;;;;;;;;;;;33.19;60.28;100752.13;5120294;27;66298;-43
2023/05/12 05:42:10;;;;;;;;;;;;;;;33.20;60.36;100751.03;5097232;27;70077;-43
2023/05/12 05:44:40;;;;;;;;;;;;;;;33.20;60.25;100748.31;5102836;27;66652;-43
2023/05/12 05:47:10;;;;;;;;;;;;;;;33.21;60.29;100736.41;5102537;27;68891;-44
2023/05/12 05:49:42;;;;;;;;;;;;;;;33.22;60.17;100735.31;5084129;27;65332;-43
2023/05/12 05:52:12;;;;;;;;;;;;;;;33.26;60.34;100735.66;5102915;27;69769;-43
2023/05/12 05:54:42;;;;;;;;;;;;;;;33.28;59.96;100731.63;5100645;27;66929;-44
2023/05/12 05:57:12;;;;;;;;;;;;;;;33.30;59.84;100734.94;5119793;27;69936;-44
2023/05/12 05:59:43;;;;;;;;;;;;;;;33.33;59.80;100726.31;5102119;27;66932;-43
2023/05/12 06:02:14;;;;;;;;;;;;;;;33.36;59.90;100725.81;5120527;27;69363;-45
2023/05/12 06:04:44;;;;;;;;;;;;;;;33.38;59.78;100720.16;5100072;27;66233;-42
2023/05/12 06:07:15;;;;;;;;;;;;;;;33.40;59.87;100719.91;5102508;27;68700;-44
2023/05/12 06:09:47;;;;;;;;;;;;;;;33.41;59.96;100721.56;5119967;27;66715;-45
2023/05/12 06:12:17;;;;;;;;;;;;;;;33.42;59.88;100717.78;5116945;27;70047;-43
2023/05/12 06:14:48;;;;;;;;;;;;;;;33.45;59.82;100717.28;5118003;27;66140;-44
2023/05/12 06:17:18;;;;;;;;;;;;;;;33.47;59.74;100710.53;5096598;27;70274;-44
2023/05/12 06:19:49;;;;;;;;;;;;;;;33.51;59.69;100717.13;5116391;27;66798;-44
2023/05/12 06:22:20;;;;;;;;;;;;;;;33.55;59.60;100712.09;5091546;27;70283;-43
2023/05/12 06:24:50;;;;;;;;;;;;;;;33.56;59.67;100713.72;5113395;27;65592;-44
2023/05/12 06:27:21;;;;;;;;;;;;;;;33.58;59.52;100696.09;5121932;27;69554;-44
2023/05/12 06:29:51;;;;;;;;;;;;;;;33.60;59.72;100690.44;5130176;27;65158;-44
2023/05/12 06:32:22;;;;;;;;;;;;;;;33.59;59.75;100691.47;5130995;27;70908;-43
2023/05/12 06:34:52;;;;;;;;;;;;;;;33.62;60.10;100685.56;5110871;27;66324;-43
2023/05/12 06:37:24;;;;;;;;;;;;;;;33.62;60.21;100674.66;5108884;27;70051;-44
2023/05/12 06:39:54;;;;;;;;;;;;;;;33.64;60.29;100677.97;5117275;27;66130;-44
2023/05/12 06:42:25;;;;;;;;;;;;;;;33.65;60.26;100674.19;5106511;27;69521;-43
2023/05/12 06:44:56;;;;;;;;;;;;;;;33.66;60.35;100670.41;5110149;27;66030;-45
2023/05/12 06:47:27;;;;;;;;;;;;;;;33.67;60.24;100672.06;5126133;27;71042;-44
2023/05/12 06:49:58;;;;;;;;;;;;;;;33.67;60.15;100677.50;5106169;27;66424;-44
2023/05/12 06:52:29;;;;;;;;;;;;;;;33.69;60.17;100669.09;5110581;27;69268;-43
2023/05/12 06:54:59;;;;;;;;;;;;;;;33.70;59.93;100668.84;5106892;27;66856;-43
2023/05/12 06:57:30;;;;;;;;;;;;;;;33.72;60.34;100668.59;5120672;27;68894;-42
2023/05/12 07:00:01;;;;;;;;;;;;;;;33.71;60.16;100670.50;5128650;27;66887;-45
2023/05/12 07:02:32;;;;;;;;;;;;;;;33.73;60.26;100671.06;5130260;27;70577;-43
2023/05/12 07:05:03;;;;;;;;;;;;;;;33.75;59.91;100668.94;5131465;27;67091;-43
2023/05/12 07:07:34;;;;;;;;;;;;;;;33.75;60.10;100668.94;5106199;27;68193;-42
2023/05/12 07:10:06;;;;;;;;;;;;;;;33.76;60.08;100670.56;5125028;27;66078;-43
2023/05/12 07:12:37;;;;;;;;;;;;;;;33.77;60.11;100674.97;5132970;27;69523;-44
2023/05/12 07:15:08;;;;;;;;;;;;;;;33.76;59.98;100676.00;5132677;27;67189;-42
2023/05/12 07:17:38;;;;;;;;;;;;;;;33.77;59.70;100674.97;5126025;27;70127;-46
2023/05/12 07:20:09;;;;;;;;;;;;;;;33.78;59.96;100662.19;5131945;27;66843;-43
2023/05/12 07:22:40;;;;;;;;;;;;;;;33.79;59.65;100655.66;5122553;27;69756;-43
2023/05/12 07:25:10;;;;;;;;;;;;;;;33.79;59.77;100659.22;5136964;27;66658;-45
2023/05/12 07:27:41;;;;;;;;;;;;;;;33.80;60.00;100660.88;5118863;27;69391;-44
2023/05/12 07:30:11;;;;;;;;;;;;;;;33.80;59.73;100649.97;5130543;27;65707;-45
2023/05/12 07:32:42;;;;;;;;;;;;;;;33.83;59.79;100642.41;5131385;27;70006;-43
2023/05/12 07:35:13;;;;;;;;;;;;;;;33.83;59.68;100642.41;5128695;27;66059;-44
2023/05/12 07:37:43;;;;;;;;;;;;;;;33.83;59.78;100636.97;5131862;27;69620;-43
2023/05/12 07:40:13;;;;;;;;;;;;;;;33.84;59.55;100633.16;5107005;27;66188;-44
2023/05/12 07:42:44;;;;;;;;;;;;;;;33.85;59.39;100630.22;5131660;27;69122;-43
2023/05/12 07:45:21;;;;;;;;;;;;;;;33.86;59.52;100625.59;5128167;27;66576;-44
2023/05/12 07:47:52;;;;;;;;;;;;;;;33.86;59.71;100628.31;5131257;27;69735;-42
2023/05/12 07:50:23;;;;;;;;;;;;;;;33.68;59.63;100597.53;5128511;27;65615;-43
2023/05/12 07:52:53;;;;;;;;;;;;;;;33.89;59.64;100630.53;5129337;27;69813;-42
2023/05/12 07:55:24;;;;;;;;;;;;;;;33.88;59.51;100624.28;5131814;27;66946;-43
2023/05/12 07:57:55;;;;;;;;;;;;;;;33.90;59.40;100626.72;5128726;27;71293;-43
2023/05/12 08:00:25;;;;;;;;;;;;;;;33.91;59.52;100629.22;5124016;27;66524;-43
2023/05/12 08:02:56;;;;;;;;;;;;;;;33.92;59.44;100636.28;5124075;27;70271;-43
2023/05/12 08:05:29;;;;;;;;;;;;;;;33.90;59.08;100627.53;5123593;27;67813;-43
2023/05/12 08:07:59;;;;;;;;;;;;;;;33.94;59.47;100633.34;5126097;27;70326;-44
2023/05/12 08:10:31;;;;;;;;;;;;;;;33.95;59.44;100634.97;5129599;27;65688;-42
2023/05/12 08:13:02;;;;;;;;;;;;;;;33.95;59.36;100640.41;5127964;27;70366;-42
2023/05/12 08:15:32;;;;;;;;;;;;;;;33.77;59.38;100606.13;5108506;27;66516;-43
2023/05/12 08:18:03;;;;;;;;;;;;;;;33.96;58.89;100629.31;5123293;27;69002;-45
2023/05/12 08:20:34;;;;;;;;;;;;;;;33.97;59.18;100630.13;5124680;27;66038;-46
2023/05/12 08:23:04;;;;;;;;;;;;;;;33.98;59.32;100629.84;5127030;27;71317;-43
2023/05/12 08:25:36;;;;;;;;;;;;;;;33.98;58.69;100627.13;5130904;27;66939;-44
2023/05/12 08:28:06;;;;;;;;;;;;;;;33.99;58.83;100636.13;5099511;27;70562;-43
2023/05/12 08:30:36;;;;;;;;;;;;;;;33.98;58.69;100629.84;5128828;27;65646;-43
2023/05/12 08:33:07;;;;;;;;;;;;;;;34.00;58.88;100624.19;5127935;27;70381;-44
2023/05/12 08:35:38;;;;;;;;;;;;;;;34.00;59.05;100633.16;5127644;27;65758;-43
2023/05/12 08:38:09;;;;;;;;;;;;;;;34.02;58.77;100632.94;5125733;27;70486;-43
2023/05/12 08:40:58;;;;;;;;;;;;;;;34.02;58.99;100646.53;5123839;27;66150;-43
2023/05/12 08:43:49;;;;;;;;;;;;;;;34.03;58.83;100657.16;5128509;27;69458;-43
2023/05/12 08:46:20;;;;;;;;;;;;;;;34.03;58.73;100656.34;5127935;27;66124;-44
2023/05/12 08:48:51;;;;;;;;;;;;;;;34.03;58.93;100650.91;5105023;27;70320;-43
2023/05/12 08:51:23;;;;;;;;;;;;;;;34.03;58.93;100659.06;5117356;27;66650;-44
2023/05/12 08:53:54;;;;;;;;;;;;;;;34.03;58.83;100659.88;5128650;27;69691;-43
2023/05/12 08:56:26;;;;;;;;;;;;;;;34.03;59.25;100659.06;5126416;27;66388;-44
2023/05/12 08:59:00;;;;;;;;;;;;;;;34.04;58.86;100666.16;5127088;27;69244;-43
2023/05/12 09:01:32;;;;;;;;;;;;;;;34.04;59.19;100666.16;5129837;27;66544;-42
2023/05/12 09:04:05;;;;;;;;;;;;;;;34.05;59.44;100665.13;5131535;27;70283;-44
2023/05/12 09:06:35;;;;;;;;;;;;;;;34.06;59.26;100674.09;5109809;27;66606;-43
2023/05/12 09:09:07;;;;;;;;;;;;;;;34.06;59.19;100674.09;5134018;27;70360;-43
2023/05/12 09:11:40;;;;;;;;;;;;;;;34.05;59.11;100673.28;5132457;27;65919;-44
2023/05/12 09:14:17;;;;;;;;;;;;;;;34.06;59.36;100664.03;5132495;27;69667;-43
2023/05/12 09:16:53;;;;;;;;;;;;;;;34.04;59.25;100671.59;5131040;27;66698;-46
2023/05/12 09:19:23;;;;;;;;;;;;;;;34.04;59.02;100671.59;5120910;27;70383;-43
2023/05/12 09:21:53;;;;;;;;;;;;;;;34.01;60.29;100672.09;5126992;27;65828;-42
2023/05/12 09:24:53;;;;;;;;;;;;;;;34.08;60.32;100672.78;5119165;27;70200;-43
2023/05/12 09:27:25;;;;;;;;;;;;;;;34.06;60.96;100664.03;5106022;27;66680;-41
2023/05/12 09:29:57;;;;;;;;;;;;;;;34.05;61.62;100647.97;5125861;27;70448;-41
2023/05/12 09:32:32;;;;;;;;;;;;;;;33.93;63.34;100654.25;5121378;27;67455;-44
2023/05/12 09:35:05;;;;;;;;;;;;;;;33.86;63.44;100652.78;5119929;27;69729;-42
2023/05/12 09:37:36;;;;;;;;;;;;;;;33.90;63.12;100659.38;5123244;27;66311;-42
2023/05/12 09:40:07;;;;;;;;;;;;;;;33.90;63.01;100657.47;5119014;27;69861;-42
2023/05/12 09:42:38;;;;;;;;;;;;;;;33.91;63.12;100661.06;5086242;27;65375;-43
2023/05/12 09:45:08;;;;;;;;;;;;;;;34.03;62.24;100659.06;5103887;27;70384;-42
2023/05/12 09:47:41;;;;;;;;;;;;;;;34.07;61.83;100652.06;5129156;27;67131;-44
2023/05/12 09:50:11;;;;;;;;;;;;;;;34.08;62.22;100648.28;5127674;27;70000;-43
2023/05/12 09:52:42;;;;;;;;;;;;;;;34.07;62.18;100643.91;5133802;27;66484;-42
2023/05/12 09:55:13;;;;;;;;;;;;;;;33.98;62.31;100645.38;5129074;27;70450;-43
2023/05/12 09:57:44;;;;;;;;;;;;;;;34.02;62.38;100643.81;5131312;27;65284;-43
2023/05/12 10:00:16;;;;;;;;;;;;;;;33.94;62.71;100649.66;5131487;27;69865;-44
2023/05/12 10:03:10;;;;;;;;;;;;;;;33.95;62.49;100654.03;5127871;27;66688;-42
2023/05/12 10:06:00;;;;;;;;;;;;;;;33.93;62.88;100664.31;5122526;27;70358;-44
2023/05/12 10:08:37;;;;;;;;;;;;;;;33.90;62.94;100670.25;5124104;27;64934;-43
2023/05/12 10:11:07;;;;;;;;;;;;;;;33.88;62.93;100677.84;5131546;27;69866;-46
2023/05/12 10:13:39;;;;;;;;;;;;;;;33.87;63.26;100692.53;5128887;27;66767;-43
2023/05/12 10:16:09;;;;;;;;;;;;;;;33.85;63.40;100695.50;5129262;27;69358;-43
2023/05/12 10:18:43;;;;;;;;;;;;;;;33.85;63.20;100703.66;5136857;27;66606;-42
2023/05/12 10:21:14;;;;;;;;;;;;;;;33.89;62.70;100712.16;5128666;27;69840;-45
2023/05/12 10:23:46;;;;;;;;;;;;;;;33.84;63.00;100726.50;5133483;27;66210;-44
2023/05/12 10:26:16;;;;;;;;;;;;;;;33.83;62.95;100734.91;5130239;27;69304;-42
2023/05/12 10:28:48;;;;;;;;;;;;;;;33.81;63.17;100748.75;5130414;27;65505;-45
2023/05/12 10:31:21;;;;;;;;;;;;;;;33.84;63.02;100763.75;5127144;27;70230;-43
2023/05/12 10:33:58;;;;;;;;;;;;;;;33.81;63.24;100759.63;5127935;27;65565;-46
2023/05/12 10:36:28;;;;;;;;;;;;;;;33.79;63.97;100765.34;5128784;27;70050;-45
2023/05/12 10:39:05;;;;;;;;;;;;;;;33.83;63.86;100770.28;5132811;27;66145;-43
2023/05/12 10:41:42;;;;;;;;;;;;;;;33.81;64.13;100765.88;5129068;27;69026;-44
2023/05/12 10:44:12;;;;;;;;;;;;;;;33.78;64.31;100771.81;5123569;27;66433;-44
2023/05/12 10:46:43;;;;;;;;;;;;;;;33.78;65.03;100771.00;5130301;27;69071;-46
2023/05/12 10:49:14;;;;;;;;;;;;;;;33.79;64.72;100775.38;5130784;27;66725;-44
2023/05/12 10:51:44;;;;;;;;;;;;;;;33.79;64.75;100783.53;5131669;27;68109;-45
2023/05/12 10:54:20;;;;;;;;;;;;;;;33.79;64.38;100778.94;5133180;27;66693;-45
2023/05/12 10:56:51;;;;;;;;;;;;;;;33.70;64.60;100774.94;5130339;27;70641;-45
2023/05/12 10:59:23;;;;;;;;;;;;;;;33.67;64.38;100775.41;5131656;27;66769;-43
2023/05/12 11:02:01;;;;;;;;;;;;;;;33.68;64.44;100781.69;5132563;27;70512;-45
2023/05/12 11:04:39;;;;;;;;;;;;;;;33.69;64.28;100778.72;5133164;27;66043;-43
2023/05/12 11:07:11;;;;;;;;;;;;;;;33.72;64.78;100783.69;5127025;27;69306;-45
2023/05/12 11:09:44;;;;;;;;;;;;;;;33.81;65.01;100793.09;5131630;27;66738;-46
2023/05/12 11:12:27;;;;;;;;;;;;;;;33.84;64.80;100799.13;5123628;27;69588;-43
2023/05/12 11:15:01;;;;;;;;;;;;;;;33.79;64.42;100795.25;5130713;27;65891;-43
2023/05/12 11:17:38;;;;;;;;;;;;;;;33.77;64.51;100791.94;5126472;27;69846;-47
2023/05/12 11:20:09;;;;;;;;;;;;;;;33.71;65.60;100798.38;5130953;27;65703;-45
2023/05/12 11:22:41;;;;;;;;;;;;;;;33.64;65.59;100807.72;5132653;27;70945;-43
2023/05/12 11:25:12;;;;;;;;;;;;;;;33.61;65.02;100810.94;5133572;27;67033;-44
2023/05/12 11:27:49;;;;;;;;;;;;;;;33.64;65.56;100805.81;5130754;27;70058;-43
2023/05/12 11:30:21;;;;;;;;;;;;;;;33.64;64.94;100815.88;5132819;27;65628;-43
2023/05/12 11:33:01;;;;;;;;;;;;;;;33.64;65.12;100822.16;5132515;27;70335;-45
2023/05/12 11:35:32;;;;;;;;;;;;;;;33.64;64.90;100824.84;5133352;27;66372;-45
2023/05/12 11:38:14;;;;;;;;;;;;;;;33.64;65.01;100833.03;5132352;27;70181;-44
2023/05/12 11:40:45;;;;;;;;;;;;;;;33.64;64.55;100833.03;5129375;27;64951;-44
2023/05/12 11:43:20;;;;;;;;;;;;;;;33.63;64.84;100839.53;5129998;27;70542;-45
2023/05/12 11:45:50;;;;;;;;;;;;;;;33.65;64.42;100842.81;5128090;27;66859;-45
2023/05/12 11:48:21;;;;;;;;;;;;;;;33.65;64.10;100848.25;5129511;27;67984;-46
2023/05/12 11:50:51;;;;;;;;;;;;;;;33.65;64.28;100856.44;5131730;27;67085;-45
2023/05/12 11:53:24;;;;;;;;;;;;;;;33.65;64.30;100863.75;5132602;27;70439;-47
2023/05/12 11:55:56;;;;;;;;;;;;;;;33.65;64.28;100852.88;5138330;27;66782;-47
2023/05/12 11:58:29;;;;;;;;;;;;;;;33.62;64.38;100854.19;5136579;27;69231;-45
2023/05/12 12:01:11;;;;;;;;;;;;;;;33.63;64.18;100855.88;5129295;27;66900;-43
2023/05/12 12:03:47;;;;;;;;;;;;;;;33.63;64.14;100865.88;5130576;27;69992;-46
2023/05/12 12:06:19;;;;;;;;;;;;;;;33.60;64.11;100869.94;5128556;27;66404;-47
2023/05/12 12:08:50;;;;;;;;;;;;;;;33.62;64.19;100869.69;5112707;27;69594;-43
2023/05/12 12:11:22;;;;;;;;;;;;;;;33.61;64.06;100882.47;5131621;27;66322;-46
2023/05/12 12:13:56;;;;;;;;;;;;;;;33.60;63.89;100886.25;5129612;27;69958;-45
2023/05/12 12:16:28;;;;;;;;;;;;;;;33.57;63.98;100890.28;5120525;27;65960;-44
2023/05/12 12:18:58;;;;;;;;;;;;;;;33.57;63.88;100894.88;5134482;27;70434;-47
2023/05/12 12:21:30;;;;;;;;;;;;;;;33.56;63.76;100893.22;5131486;27;66493;-43
2023/05/12 12:24:01;;;;;;;;;;;;;;;33.54;63.79;100890.75;5128133;27;68920;-44
2023/05/12 12:26:34;;;;;;;;;;;;;;;33.55;63.79;100897.03;5128217;27;66546;-45
2023/05/12 12:29:07;;;;;;;;;;;;;;;33.54;63.70;100900.78;5128707;27;70540;-44
2023/05/12 12:31:37;;;;;;;;;;;;;;;33.52;63.75;100902.91;5131753;27;64463;-44
2023/05/12 12:34:08;;;;;;;;;;;;;;;33.52;63.83;100902.91;5128411;27;70148;-46
2023/05/12 12:36:39;;;;;;;;;;;;;;;33.51;63.40;100912.13;5131452;27;66719;-43
2023/05/12 12:39:10;;;;;;;;;;;;;;;33.49;63.46;100925.13;5130488;27;68085;-45
2023/05/12 12:41:42;;;;;;;;;;;;;;;33.49;63.57;100920.53;5132166;27;66542;-44
2023/05/12 12:44:13;;;;;;;;;;;;;;;33.50;63.44;100921.34;5126035;27;69539;-44
2023/05/12 12:46:43;;;;;;;;;;;;;;;33.51;63.26;100928.44;5129220;27;66094;-44
2023/05/12 12:49:14;;;;;;;;;;;;;;;33.49;63.39;100942.28;5112219;27;69908;-42
2023/05/12 12:51:44;;;;;;;;;;;;;;;33.48;63.30;100939.78;5109341;27;66647;-45
2023/05/12 12:54:15;;;;;;;;;;;;;;;33.47;63.23;100941.69;5134849;27;69884;-42
2023/05/12 12:56:46;;;;;;;;;;;;;;;33.47;63.23;100951.75;5136862;27;66307;-44
2023/05/12 12:59:21;;;;;;;;;;;;;;;33.46;63.20;100955.50;5114885;27;69734;-45
2023/05/12 13:01:53;;;;;;;;;;;;;;;33.47;63.33;100959.91;5128456;27;66073;-47